createdAt,value
2023-02-01T00:01:13.419Z,6.17
2023-02-01T00:04:15.069Z,6.17
2023-02-01T00:07:16.712Z,6.13
2023-02-01T00:10:18.813Z,6.23
2023-02-01T00:13:20.421Z,6.10
2023-02-01T00:16:27.660Z,5.63
2023-02-01T00:19:29.293Z,7.03
2023-02-01T00:22:30.927Z,6.33
2023-02-01T00:25:33.013Z,6.30
2023-02-01T00:28:34.937Z,7.20
2023-02-01T00:31:36.699Z,7.30
2023-02-01T00:34:38.430Z,6.50
2023-02-01T00:37:40.008Z,7.97
2023-02-01T00:40:41.588Z,7.03
2023-02-01T00:43:43.917Z,6.80
2023-02-01T00:46:45.575Z,7.40
2023-02-01T00:49:47.268Z,7.47
2023-02-01T00:52:48.868Z,6.90
2023-02-01T00:55:50.444Z,7.20
2023-02-01T00:58:52.033Z,6.63
2023-02-01T01:01:53.694Z,6.73
2023-02-01T01:04:55.437Z,6.83
2023-02-01T01:07:57.022Z,7.13
2023-02-01T01:10:58.645Z,7.27
2023-02-01T01:14:00.989Z,7.03
2023-02-01T01:17:02.578Z,7.70
2023-02-01T01:20:05.196Z,6.40
2023-02-01T01:23:08.422Z,6.77
2023-02-01T01:26:13.895Z,7.23
2023-02-01T01:29:15.595Z,7.27
2023-02-01T01:32:17.171Z,7.40
2023-02-01T01:35:18.787Z,7.57
2023-02-01T01:38:20.428Z,7.50
2023-02-01T01:41:25.515Z,7.60
2023-02-01T01:45:01.153Z,7.73
2023-02-01T01:48:30.085Z,7.20
2023-02-01T01:51:36.566Z,9.30
2023-02-01T01:54:47.919Z,9.07
2023-02-01T01:57:58.688Z,8.70
2023-02-01T02:01:00.723Z,8.57
2023-02-01T02:04:03.316Z,8.53
2023-02-01T02:07:15.243Z,8.60
2023-02-01T02:10:18.183Z,8.10
2023-02-01T02:13:20.322Z,9.10
2023-02-01T02:17:02.904Z,8.13
2023-02-01T02:20:28.857Z,8.80
2023-02-01T02:24:00.885Z,8.97
2023-02-01T02:27:23.833Z,8.90
2023-02-01T02:31:07.539Z,9.10
2023-02-01T02:34:46.960Z,8.10
2023-02-01T02:38:16.777Z,10.17
2023-02-01T02:42:04.543Z,9.10
2023-02-01T02:45:32.532Z,9.50
2023-02-01T02:48:43.536Z,9.77
2023-02-01T02:52:15.286Z,9.67
2023-02-01T02:55:17.397Z,10.10
2023-02-01T02:58:40.644Z,10.87
2023-02-01T03:02:01.709Z,10.20
2023-02-01T03:05:03.424Z,9.37
2023-02-01T03:08:10.434Z,9.70
2023-02-01T03:11:15.342Z,9.40
2023-02-01T03:14:19.462Z,10.20
2023-02-01T03:17:27.602Z,9.97
2023-02-01T03:20:30.962Z,9.37
2023-02-01T03:23:36.162Z,8.93
2023-02-01T03:26:40.824Z,8.93
2023-02-01T03:29:50.839Z,9.40
2023-02-01T03:33:00.091Z,9.27
2023-02-01T03:36:23.613Z,8.40
2023-02-01T03:39:32.225Z,8.70
2023-02-01T03:42:39.579Z,8.20
2023-02-01T03:45:46.902Z,8.73
2023-02-01T03:48:50.910Z,8.97
2023-02-01T03:51:53.839Z,9.00
2023-02-01T03:54:56.847Z,8.60
2023-02-01T03:58:07.114Z,9.00
2023-02-01T04:01:08.734Z,8.23
2023-02-01T04:04:10.548Z,8.10
2023-02-01T04:07:14.907Z,8.77
2023-02-01T04:10:19.646Z,7.73
2023-02-01T04:13:21.463Z,7.83
2023-02-01T04:16:23.195Z,6.87
2023-02-01T04:19:24.872Z,7.43
2023-02-01T04:22:26.647Z,6.83
2023-02-01T04:25:28.222Z,7.50
2023-02-01T04:28:30.271Z,6.70
2023-02-01T04:31:31.987Z,6.77
2023-02-01T04:34:33.612Z,6.17
2023-02-01T04:37:35.899Z,6.93
2023-02-01T04:40:38.692Z,5.90
2023-02-01T04:43:40.484Z,6.00
2023-02-01T04:46:43.025Z,5.80
2023-02-01T04:49:44.607Z,5.67
2023-02-01T04:52:48.023Z,5.30
2023-02-01T04:55:51.047Z,4.90
2023-02-01T04:58:52.791Z,4.80
2023-02-01T05:01:54.389Z,4.50
2023-02-01T05:04:56.814Z,3.20
2023-02-01T05:07:58.956Z,3.63
2023-02-01T05:11:03.353Z,3.30
2023-02-01T05:14:05.006Z,2.77
2023-02-01T05:17:06.638Z,2.80
2023-02-01T05:20:09.984Z,2.90
2023-02-01T05:23:11.589Z,2.73
2023-02-01T05:26:13.425Z,2.37
2023-02-01T05:29:16.150Z,3.27
2023-02-01T05:32:22.916Z,3.00
2023-02-01T05:35:24.797Z,2.57
2023-02-01T05:38:26.414Z,3.07
2023-02-01T05:41:27.963Z,2.63
2023-02-01T05:44:29.571Z,2.37
2023-02-01T05:47:31.163Z,3.40
2023-02-01T05:50:32.750Z,2.20
2023-02-01T05:53:34.405Z,2.17
2023-02-01T05:56:36.030Z,2.10
2023-02-01T05:59:41.891Z,2.20
2023-02-01T06:02:43.539Z,1.87
2023-02-01T06:05:46.382Z,1.93
2023-02-01T06:08:47.970Z,2.07
2023-02-01T06:11:49.558Z,2.00
2023-02-01T06:14:51.124Z,2.30
2023-02-01T06:17:52.749Z,2.00
2023-02-01T06:21:00.927Z,2.30
2023-02-01T06:24:02.555Z,2.10
2023-02-01T06:27:04.241Z,2.13
2023-02-01T06:30:07.332Z,2.10
2023-02-01T06:33:08.920Z,2.13
2023-02-01T06:36:13.244Z,2.10
2023-02-01T06:39:16.950Z,2.30
2023-02-01T06:42:18.599Z,2.97
2023-02-01T06:45:20.172Z,2.97
2023-02-01T06:48:21.727Z,3.00
2023-02-01T06:51:29.236Z,3.80
2023-02-01T06:54:34.470Z,3.10
2023-02-01T06:57:36.660Z,2.70
2023-02-01T07:00:38.333Z,2.80
2023-02-01T07:03:40.304Z,2.80
2023-02-01T07:06:42.076Z,2.40
2023-02-01T07:09:43.709Z,2.90
2023-02-01T07:12:45.297Z,2.27
2023-02-01T07:15:49.951Z,3.00
2023-02-01T07:18:52.907Z,2.63
2023-02-01T07:21:54.606Z,3.57
2023-02-01T07:24:56.356Z,2.77
2023-02-01T07:27:58.675Z,3.07
2023-02-01T07:31:05.285Z,3.43
2023-02-01T07:34:06.918Z,3.60
2023-02-01T07:37:08.517Z,3.60
2023-02-01T07:40:12.534Z,3.77
2023-02-01T07:43:14.332Z,3.70
2023-02-01T07:46:16.462Z,3.67
2023-02-01T07:49:20.860Z,3.97
2023-02-01T07:52:22.474Z,3.90
2023-02-01T07:55:24.118Z,4.20
2023-02-01T07:58:26.742Z,3.70
2023-02-01T08:01:29.929Z,4.10
2023-02-01T08:04:31.521Z,4.00
2023-02-01T08:07:33.118Z,4.63
2023-02-01T08:10:35.966Z,4.43
2023-02-01T08:13:37.639Z,4.50
2023-02-01T08:16:40.210Z,5.43
2023-02-01T08:19:41.937Z,4.40
2023-02-01T08:22:43.635Z,4.60
2023-02-01T08:25:45.457Z,4.57
2023-02-01T08:28:50.313Z,4.63
2023-02-01T08:31:52.776Z,4.47
2023-02-01T08:34:54.729Z,4.53
2023-02-01T08:37:56.374Z,4.40
2023-02-01T08:40:58.188Z,4.20
2023-02-01T08:43:59.904Z,4.50
2023-02-01T08:47:02.137Z,4.60
2023-02-01T08:50:04.093Z,4.30
2023-02-01T08:53:05.714Z,4.90
2023-02-01T08:56:07.941Z,4.10
2023-02-01T08:59:09.506Z,3.97
2023-02-01T09:02:18.172Z,3.10
2023-02-01T09:05:23.115Z,3.00
2023-02-01T09:08:24.734Z,3.20
2023-02-01T09:11:26.741Z,3.30
2023-02-01T09:14:28.351Z,3.67
2023-02-01T09:17:31.016Z,3.77
2023-02-01T09:20:32.864Z,3.80
2023-02-01T09:23:35.273Z,2.63
2023-02-01T09:26:37.529Z,3.23
2023-02-01T09:29:39.264Z,3.43
2023-02-01T09:32:40.945Z,4.10
2023-02-01T09:35:42.549Z,2.97
2023-02-01T09:38:52.388Z,3.07
2023-02-01T09:42:18.273Z,2.90
2023-02-01T09:45:23.572Z,3.07
2023-02-01T09:48:39.180Z,3.37
2023-02-01T09:51:49.421Z,3.00
2023-02-01T09:55:01.647Z,2.97
2023-02-01T09:58:27.070Z,3.13
2023-02-01T10:01:30.292Z,4.33
2023-02-01T10:04:34.296Z,2.47
2023-02-01T10:07:59.983Z,3.53
2023-02-01T10:11:48.930Z,3.33
2023-02-01T10:15:20.646Z,3.03
2023-02-01T10:18:43.232Z,2.80
2023-02-01T10:21:48.005Z,2.93
2023-02-01T10:25:05.697Z,3.10
2023-02-01T10:28:15.859Z,2.40
2023-02-01T10:31:18.559Z,2.97
2023-02-01T10:34:33.687Z,2.70
2023-02-01T10:37:35.672Z,3.10
2023-02-01T10:40:38.754Z,2.40
2023-02-01T10:43:41.023Z,2.80
2023-02-01T10:46:42.812Z,2.93
2023-02-01T10:49:59.405Z,2.60
2023-02-01T10:53:09.955Z,3.40
2023-02-01T10:56:13.204Z,3.70
2023-02-01T10:59:20.646Z,2.60
2023-02-01T11:02:33.787Z,3.10
2023-02-01T11:05:45.689Z,3.10
2023-02-01T11:08:50.817Z,2.53
2023-02-01T11:11:52.360Z,3.00
2023-02-01T11:15:00.439Z,3.40
2023-02-01T11:18:20.195Z,2.73
2023-02-01T11:21:22.008Z,3.10
2023-02-01T11:24:36.423Z,2.70
2023-02-01T11:27:49.364Z,2.73
2023-02-01T11:30:59.505Z,2.67
2023-02-01T11:34:07.149Z,3.13
2023-02-01T11:37:20.686Z,2.30
2023-02-01T11:40:37.121Z,2.80
2023-02-01T11:43:50.505Z,3.17
2023-02-01T11:46:52.169Z,2.57
2023-02-01T11:50:06.800Z,3.50
2023-02-01T11:53:34.724Z,2.53
2023-02-01T11:57:08.857Z,2.43
2023-02-01T12:00:35.231Z,2.87
2023-02-01T12:04:08.687Z,2.50
2023-02-01T12:07:40.658Z,2.50
2023-02-01T12:11:03.990Z,2.17
2023-02-01T12:14:33.680Z,2.70
2023-02-01T12:18:16.567Z,2.40
2023-02-01T12:21:21.069Z,2.30
2023-02-01T12:24:39.013Z,3.23
2023-02-01T12:28:25.421Z,2.83
2023-02-01T12:31:48.218Z,2.73
2023-02-01T12:35:22.816Z,1.90
2023-02-01T12:38:44.278Z,2.53
2023-02-01T12:42:02.445Z,2.93
2023-02-01T12:45:29.828Z,2.40
2023-02-01T12:48:37.762Z,2.50
2023-02-01T12:51:42.513Z,2.77
2023-02-01T12:54:59.086Z,2.50
2023-02-01T12:58:21.206Z,3.30
2023-02-01T13:01:54.384Z,2.27
2023-02-01T13:05:18.875Z,2.43
2023-02-01T13:08:39.449Z,2.60
2023-02-01T13:11:45.970Z,2.20
2023-02-01T13:14:54.997Z,2.33
2023-02-01T13:18:01.334Z,3.10
2023-02-01T13:21:09.584Z,2.53
2023-02-01T13:24:31.482Z,2.30
2023-02-01T13:27:34.037Z,2.43
2023-02-01T13:30:54.374Z,2.60
2023-02-01T13:33:56.658Z,2.20
2023-02-01T13:37:16.419Z,2.77
2023-02-01T13:40:41.731Z,3.13
2023-02-01T13:43:48.961Z,2.27
2023-02-01T13:46:55.165Z,2.30
2023-02-01T13:50:00.824Z,2.60
2023-02-01T13:53:17.867Z,2.03
2023-02-01T13:56:22.220Z,2.70
2023-02-01T13:59:41.960Z,3.30
2023-02-01T14:02:43.608Z,2.63
2023-02-01T14:05:45.317Z,2.60
2023-02-01T14:09:07.627Z,2.47
2023-02-01T14:12:44.704Z,1.87
2023-02-01T14:16:10.310Z,2.70
2023-02-01T14:19:29.949Z,2.27
2023-02-01T14:22:35.781Z,2.80
2023-02-01T14:25:38.408Z,3.43
2023-02-01T14:28:46.669Z,2.27
2023-02-01T14:32:02.800Z,2.57
2023-02-01T14:35:08.895Z,2.40
2023-02-01T14:38:12.269Z,2.60
2023-02-01T14:41:26.699Z,3.97
2023-02-01T14:44:34.425Z,5.70
2023-02-01T14:47:36.166Z,5.17
2023-02-01T14:50:43.527Z,5.77
2023-02-01T14:53:47.579Z,5.17
2023-02-01T14:56:50.490Z,2.60
2023-02-01T15:00:00.777Z,2.37
2023-02-01T15:03:45.306Z,2.23
2023-02-01T15:06:59.427Z,2.47
2023-02-01T15:10:01.385Z,1.90
2023-02-01T15:13:03.136Z,2.20
2023-02-01T15:16:16.414Z,2.20
2023-02-01T15:19:18.099Z,3.17
2023-02-01T15:22:20.189Z,3.30
2023-02-01T15:25:35.173Z,2.13
2023-02-01T15:28:36.859Z,2.00
2023-02-01T15:31:47.700Z,2.63
2023-02-01T15:34:51.032Z,2.60
2023-02-01T15:37:53.078Z,2.20
2023-02-01T15:41:08.520Z,2.23
2023-02-01T15:44:42.355Z,2.47
2023-02-01T15:47:51.529Z,2.20
2023-02-01T15:50:56.411Z,2.90
2023-02-01T15:54:08.456Z,2.13
2023-02-01T15:57:10.309Z,2.47
2023-02-01T16:00:31.629Z,2.63
2023-02-01T16:03:42.076Z,2.60
2023-02-01T16:06:56.252Z,2.73
2023-02-01T16:10:01.938Z,2.70
2023-02-01T16:13:03.518Z,2.33
2023-02-01T16:16:08.917Z,2.60
2023-02-01T16:19:10.725Z,2.93
2023-02-01T16:22:12.302Z,2.40
2023-02-01T16:25:14.015Z,1.93
2023-02-01T16:28:15.650Z,2.57
2023-02-01T16:31:22.222Z,2.70
2023-02-01T16:34:23.905Z,2.50
2023-02-01T16:37:28.519Z,2.30
2023-02-01T16:40:32.966Z,2.70
2023-02-01T16:43:34.701Z,2.77
2023-02-01T16:46:41.087Z,2.50
2023-02-01T16:49:43.956Z,2.70
2023-02-01T16:52:45.662Z,2.40
2023-02-01T16:55:48.737Z,2.53
2023-02-01T16:58:50.749Z,2.70
2023-02-01T17:01:52.380Z,3.63
2023-02-01T17:04:54.055Z,4.00
2023-02-01T17:07:59.053Z,3.10
2023-02-01T17:11:00.851Z,2.80
2023-02-01T17:14:19.377Z,2.73
2023-02-01T17:17:32.858Z,2.73
2023-02-01T17:20:39.590Z,2.70
2023-02-01T17:23:41.251Z,2.23
2023-02-01T17:26:43.954Z,2.83
2023-02-01T17:29:47.020Z,2.70
2023-02-01T17:32:48.791Z,2.40
2023-02-01T17:35:51.427Z,2.90
2023-02-01T17:39:03.921Z,2.20
2023-02-01T17:42:10.516Z,2.00
2023-02-01T17:45:19.557Z,3.30
2023-02-01T17:48:22.355Z,2.23
2023-02-01T17:51:29.912Z,3.03
2023-02-01T17:54:32.241Z,3.37
2023-02-01T17:57:34.126Z,2.53
2023-02-01T18:00:38.096Z,3.23
2023-02-01T18:03:40.565Z,2.83
2023-02-01T18:06:42.211Z,6.40
2023-02-01T18:09:43.849Z,3.47
2023-02-01T18:12:46.085Z,2.40
2023-02-01T18:15:48.200Z,2.43
2023-02-01T18:18:51.004Z,2.60
2023-02-01T18:21:54.030Z,2.90
2023-02-01T18:24:55.613Z,2.83
2023-02-01T18:27:57.647Z,2.70
2023-02-01T18:30:59.768Z,2.40
2023-02-01T18:34:01.857Z,3.20
2023-02-01T18:37:05.756Z,3.20
2023-02-01T18:40:09.967Z,3.03
2023-02-01T18:43:15.521Z,3.20
2023-02-01T18:46:18.214Z,2.90
2023-02-01T18:49:19.844Z,2.97
2023-02-01T18:52:21.726Z,3.27
2023-02-01T18:55:24.314Z,3.73
2023-02-01T18:58:28.669Z,3.90
2023-02-01T19:01:30.448Z,3.00
2023-02-01T19:04:32.143Z,3.23
2023-02-01T19:07:35.141Z,2.97
2023-02-01T19:10:38.599Z,2.40
2023-02-01T19:13:40.928Z,3.00
2023-02-01T19:16:42.563Z,2.87
2023-02-01T19:19:45.744Z,2.83
2023-02-01T19:22:47.761Z,2.60
2023-02-01T19:25:49.525Z,3.40
2023-02-01T19:28:51.198Z,3.03
2023-02-01T19:31:52.895Z,2.80
2023-02-01T19:34:54.576Z,3.03
2023-02-01T19:37:56.309Z,2.53
2023-02-01T19:40:58.308Z,2.37
2023-02-01T19:44:00.012Z,2.60
2023-02-01T19:47:01.948Z,3.27
2023-02-01T19:50:06.952Z,3.10
2023-02-01T19:53:08.806Z,3.70
2023-02-01T19:56:12.584Z,4.67
2023-02-01T19:59:14.588Z,3.47
2023-02-01T20:02:17.791Z,3.90
2023-02-01T20:05:21.003Z,3.33
2023-02-01T20:08:23.450Z,2.50
2023-02-01T20:11:26.028Z,4.17
2023-02-01T20:14:28.011Z,3.40
2023-02-01T20:17:29.860Z,2.63
2023-02-01T20:20:31.519Z,2.63
2023-02-01T20:23:33.301Z,2.97
2023-02-01T20:26:36.136Z,2.50
2023-02-01T20:29:37.739Z,2.90
2023-02-01T20:32:39.518Z,2.80
2023-02-01T20:35:45.263Z,2.40
2023-02-01T20:38:49.321Z,2.53
2023-02-01T20:41:51.180Z,2.70
2023-02-01T20:44:52.841Z,2.90
2023-02-01T20:47:54.536Z,2.50
2023-02-01T20:50:57.796Z,3.50
2023-02-01T20:54:00.712Z,3.23
2023-02-01T20:57:02.572Z,2.43
2023-02-01T21:00:11.809Z,2.50
2023-02-01T21:03:14.303Z,2.63
2023-02-01T21:06:16.325Z,3.33
2023-02-01T21:09:18.620Z,3.50
2023-02-01T21:12:20.997Z,2.63
2023-02-01T21:15:26.273Z,3.50
2023-02-01T21:18:28.568Z,2.90
2023-02-01T21:21:30.651Z,3.60
2023-02-01T21:24:33.073Z,3.03
2023-02-01T21:27:36.596Z,2.70
2023-02-01T21:30:38.952Z,2.83
2023-02-01T21:33:43.342Z,3.13
2023-02-01T21:36:45.645Z,2.07
2023-02-01T21:39:47.433Z,2.73
2023-02-01T21:42:49.056Z,3.13
2023-02-01T21:45:51.423Z,3.23
2023-02-01T21:49:04.768Z,2.80
2023-02-01T21:52:08.445Z,2.33
2023-02-01T21:55:11.445Z,2.63
2023-02-01T21:58:13.065Z,3.10
2023-02-01T22:01:14.682Z,3.60
2023-02-01T22:04:16.374Z,2.57
2023-02-01T22:07:18.131Z,2.53
2023-02-01T22:10:20.728Z,2.73
2023-02-01T22:13:22.324Z,2.80
2023-02-01T22:16:24.265Z,2.40
2023-02-01T22:19:26.029Z,2.80
2023-02-01T22:22:27.655Z,3.00
2023-02-01T22:25:29.268Z,3.37
2023-02-01T22:28:33.755Z,4.00
2023-02-01T22:31:36.190Z,2.97
2023-02-01T22:34:39.010Z,2.43
2023-02-01T22:37:41.237Z,3.10
2023-02-01T22:40:42.966Z,2.97
2023-02-01T22:43:45.478Z,3.30
2023-02-01T22:46:47.238Z,3.17
2023-02-01T22:49:48.828Z,3.57
2023-02-01T22:52:50.478Z,3.00
2023-02-01T22:55:52.095Z,2.83
2023-02-01T22:58:58.772Z,2.50
2023-02-01T23:02:00.735Z,2.67
2023-02-01T23:05:02.440Z,2.80
2023-02-01T23:08:04.196Z,3.20
2023-02-01T23:11:09.336Z,2.70
2023-02-01T23:14:12.295Z,2.50
2023-02-01T23:17:13.885Z,2.33
2023-02-01T23:20:17.451Z,3.10
2023-02-01T23:23:19.059Z,2.23
2023-02-01T23:26:21.559Z,2.90
2023-02-01T23:29:23.165Z,2.60
2023-02-01T23:32:24.950Z,2.63
2023-02-01T23:35:26.729Z,2.90
2023-02-01T23:38:29.224Z,2.60
2023-02-01T23:41:31.701Z,2.40
2023-02-01T23:44:33.367Z,3.60
2023-02-01T23:47:35.048Z,2.30
2023-02-01T23:50:36.644Z,2.23
2023-02-01T23:53:39.065Z,2.33
2023-02-01T23:56:43.813Z,2.83
2023-02-01T23:59:45.386Z,2.93
